Time;durP1;ratioP1;P1;durP2;ratioP2;P2;SDS_P1;SDS_P2;PMS_P1;PMS_P2;Temp;Humidity;BMP_temperature;BMP_pressure;BME280_temperature;BME280_humidity;BME280_pressure;Samples;Min_cycle;Max_cycle;Signal;HPM_P1;HPM_P2
2020/12/07 00:01:09;;;;;;;18.50;7.83;;;4.40;99.90;;;4.84;100.00;96219.44;4999830;28;20471;-81
2020/12/07 00:03:36;;;;;;;11.83;7.70;;;4.20;99.90;;;4.80;100.00;96222.59;5010272;28;20467;-81
2020/12/07 00:06:05;;;;;;;12.80;7.83;;;4.10;99.90;;;4.75;100.00;96219.81;5005096;28;20549;-81
2020/12/07 00:08:32;;;;;;;13.10;7.53;;;4.00;99.90;;;4.81;100.00;96221.63;5001794;28;20888;-81
2020/12/07 00:11:00;;;;;;;18.33;8.83;;;4.10;99.90;;;4.78;100.00;96224.59;4998978;28;20553;-81
2020/12/07 00:13:27;;;;;;;13.70;7.07;;;4.10;99.90;;;4.66;100.00;96228.72;4997901;28;20850;-81
2020/12/07 00:15:55;;;;;;;12.70;6.77;;;3.90;99.90;;;4.61;100.00;96231.94;4998116;28;21128;-81
2020/12/07 00:18:22;;;;;;;13.23;7.40;;;3.80;99.90;;;4.57;100.00;96228.13;4999898;28;20479;-81
2020/12/07 00:20:50;;;;;;;15.10;8.43;;;3.80;99.90;;;4.54;100.00;96226.72;4997930;28;20916;-81
2020/12/07 00:23:19;;;;;;;18.60;8.70;;;3.80;99.90;;;4.60;100.00;96221.75;4997063;28;20894;-81
2020/12/07 00:25:46;;;;;;;15.03;6.80;;;4.00;99.90;;;4.62;100.00;96224.97;4999312;28;20490;-81
2020/12/07 00:28:14;;;;;;;16.73;7.43;;;3.90;99.90;;;4.61;100.00;96228.53;4999189;28;20502;-80
2020/12/07 00:30:41;;;;;;;17.07;9.03;;;4.00;99.90;;;4.64;100.00;96228.16;4998465;28;20769;-80
2020/12/07 00:33:08;;;;;;;19.40;9.13;;;4.10;99.90;;;4.60;100.00;96224.34;4999993;28;20469;-81
2020/12/07 00:35:36;;;;;;;13.03;7.77;;;4.00;99.90;;;4.54;100.00;96218.97;4998795;28;20774;-81
2020/12/07 00:38:03;;;;;;;13.97;7.70;;;3.80;99.90;;;4.58;100.00;96216.78;4998110;28;21038;-81
2020/12/07 00:40:32;;;;;;;14.43;7.30;;;3.90;99.90;;;4.57;100.00;96223.75;4999321;28;20479;-81
2020/12/07 00:43:00;;;;;;;14.60;7.33;;;3.90;99.90;;;4.60;100.00;96232.91;5000132;28;20553;-81
2020/12/07 00:45:27;;;;;;;15.53;8.03;;;3.90;99.90;;;4.64;100.00;96230.72;4999433;28;20467;-81
2020/12/07 00:47:55;;;;;;;12.33;7.17;;;3.90;99.90;;;4.62;100.00;96235.31;4999362;28;20459;-81
2020/12/07 00:50:22;;;;;;;14.37;7.87;;;3.90;99.90;;;4.57;100.00;96239.28;4999182;28;20720;-81
2020/12/07 00:52:50;;;;;;;14.93;7.57;;;3.80;99.90;;;4.57;100.00;96233.31;4999773;28;20474;-81
2020/12/07 00:55:17;;;;;;;12.37;7.50;;;3.80;99.90;;;4.58;100.00;96240.84;4995916;28;20491;-81
2020/12/07 00:57:46;;;;;;;11.27;7.13;;;3.90;99.90;;;4.58;100.00;96248.63;4997634;28;20478;-81
2020/12/07 01:00:13;;;;;;;12.60;7.37;;;3.80;99.90;;;4.58;100.00;96251.22;4998351;28;20837;-81
2020/12/07 01:02:41;;;;;;;12.37;7.37;;;3.80;99.90;;;4.56;100.00;96242.84;4999298;28;20522;-81
2020/12/07 01:05:08;;;;;;;10.17;6.00;;;3.90;99.90;;;4.57;100.00;96244.47;4999986;28;20708;-81
2020/12/07 01:07:36;;;;;;;21.43;10.87;;;3.80;99.90;;;4.54;100.00;96242.25;4997149;28;20501;-81
2020/12/07 01:10:05;;;;;;;14.73;6.90;;;3.80;99.90;;;4.55;100.00;96222.34;4999059;28;20467;-81
2020/12/07 01:12:32;;;;;;;11.00;7.13;;;3.80;99.90;;;4.56;100.00;96216.16;4999702;28;20467;-81
2020/12/07 01:15:00;;;;;;;11.23;6.50;;;3.80;99.90;;;4.55;100.00;96225.72;4997768;28;20522;-81
2020/12/07 01:17:28;;;;;;;11.53;6.10;;;3.80;99.90;;;4.57;100.00;96234.09;4999467;28;20474;-81
2020/12/07 01:19:56;;;;;;;9.70;6.60;;;3.80;99.90;;;4.50;100.00;96243.63;4999717;28;20680;-81
2020/12/07 01:22:23;;;;;;;9.13;5.10;;;3.80;99.90;;;4.48;100.00;96243.00;4997397;28;20497;-81
2020/12/07 01:24:51;;;;;;;11.27;6.47;;;3.70;99.90;;;4.42;100.00;96248.16;4999587;28;20492;-81
2020/12/07 01:27:18;;;;;;;8.73;5.47;;;3.70;99.90;;;4.41;100.00;96243.97;4996983;28;20491;-81
2020/12/07 01:29:46;;;;;;;12.83;5.80;;;3.70;99.90;;;4.47;100.00;96254.38;4998512;28;20509;-81
2020/12/07 01:32:14;;;;;;;9.77;5.40;;;3.80;99.90;;;4.45;100.00;96245.19;4999225;28;20463;-81
2020/12/07 01:34:42;;;;;;;9.27;5.37;;;3.70;99.90;;;4.46;100.00;96245.00;4998314;28;20470;-81
2020/12/07 01:37:09;;;;;;;9.50;5.40;;;3.80;99.90;;;4.43;100.00;96235.06;4995960;28;20467;-81
2020/12/07 01:39:37;;;;;;;9.67;5.17;;;3.70;99.90;;;4.37;100.00;96233.22;4998060;28;20529;-81
2020/12/07 01:42:04;;;;;;;8.30;4.90;;;3.60;99.90;;;4.26;100.00;96236.38;4999066;28;20492;-81
2020/12/07 01:44:32;;;;;;;7.30;5.00;;;3.50;99.90;;;4.30;100.00;96242.75;4997608;28;20513;-81
2020/12/07 01:47:17;;;;;;;9.10;5.13;;;3.60;99.90;;;4.36;100.00;96243.78;4997465;28;20511;-81
2020/12/07 01:49:47;;;;;;;9.97;5.17;;;3.60;99.90;;;4.39;100.00;96235.63;4998062;28;20470;-81
2020/12/07 01:52:14;;;;;;;8.10;5.07;;;3.70;99.90;;;4.39;100.00;96231.25;4999515;28;20443;-81
2020/12/07 01:54:43;;;;;;;7.53;4.73;;;3.70;99.90;;;4.35;100.00;96229.22;4998225;28;20533;-81
2020/12/07 01:57:10;;;;;;;10.30;6.07;;;3.60;99.90;;;4.37;100.00;96229.84;4997782;28;20872;-81
2020/12/07 01:59:38;;;;;;;8.97;5.70;;;3.60;99.90;;;4.28;100.00;96218.84;4999204;28;21078;-81
2020/12/07 02:02:06;;;;;;;18.97;4.47;;;3.50;99.90;;;4.33;100.00;96211.34;4998371;28;20462;-81
2020/12/07 02:04:34;;;;;;;9.33;5.93;;;3.60;99.90;;;4.33;100.00;96210.53;4997916;28;20506;-80
2020/12/07 02:07:03;;;;;;;7.67;5.00;;;3.60;99.90;;;4.36;100.00;96210.13;4995747;28;20506;-81
2020/12/07 02:09:31;;;;;;;9.27;5.40;;;3.60;99.90;;;4.38;100.00;96202.97;4999281;28;20856;-81
2020/12/07 02:12:00;;;;;;;7.33;5.03;;;3.60;99.90;;;4.38;100.00;96203.78;4996422;28;20502;-80
2020/12/07 02:14:27;;;;;;;7.20;4.90;;;3.70;99.90;;;4.36;100.00;96212.72;4995532;28;20469;-81
2020/12/07 02:16:55;;;;;;;7.77;4.50;;;3.70;99.90;;;4.37;100.00;96215.09;4996652;28;20567;-81
2020/12/07 02:19:23;;;;;;;7.67;4.70;;;3.60;99.90;;;4.30;100.00;96208.34;4996009;28;20478;-81
2020/12/07 02:21:51;;;;;;;7.27;4.90;;;3.50;99.90;;;4.26;100.00;96214.88;4997815;28;20479;-81
2020/12/07 02:24:18;;;;;;;6.20;4.53;;;3.50;99.90;;;4.28;100.00;96216.28;4999386;28;20522;-81
2020/12/07 02:26:46;;;;;;;7.83;4.80;;;3.50;99.90;;;4.24;100.00;96222.00;4997089;28;20569;-81
2020/12/07 02:29:13;;;;;;;8.83;4.90;;;3.50;99.90;;;4.26;100.00;96231.19;4996523;28;20510;-81
2020/12/07 02:31:40;;;;;;;6.27;4.40;;;3.50;99.90;;;4.22;100.00;96239.53;4996292;28;20463;-81
2020/12/07 02:34:08;;;;;;;6.30;4.13;;;3.50;99.90;;;4.20;100.00;96241.50;4995170;28;20471;-81
2020/12/07 02:36:35;;;;;;;5.67;4.40;;;3.40;99.90;;;4.13;100.00;96236.28;4996295;28;20467;-81
2020/12/07 02:39:13;;;;;;;6.83;4.90;;;3.30;99.90;;;4.18;100.00;96238.31;4997600;28;20455;-81
2020/12/07 02:41:43;;;;;;;9.63;5.57;;;3.40;99.90;;;4.23;100.00;96233.38;4995117;28;20536;-81
2020/12/07 02:44:10;;;;;;;20.23;4.40;;;3.50;99.90;;;4.23;100.00;96231.59;4997092;28;20464;-81
2020/12/07 02:46:37;;;;;;;7.10;4.70;;;3.50;99.90;;;4.15;100.00;96229.16;4998750;28;20495;-81
2020/12/07 02:49:05;;;;;;;8.00;5.03;;;3.40;99.90;;;4.19;100.00;96224.41;4998065;28;20470;-81
2020/12/07 02:51:33;;;;;;;7.87;4.77;;;3.50;99.90;;;4.18;100.00;96233.94;4996867;28;20473;-80
2020/12/07 02:54:00;;;;;;;7.53;4.43;;;3.50;99.90;;;4.22;100.00;96231.75;4997826;28;20463;-81
2020/12/07 02:56:29;;;;;;;7.73;4.67;;;3.50;99.90;;;4.22;100.00;96237.75;4996421;28;20876;-80
2020/12/07 02:58:56;;;;;;;6.03;4.50;;;3.60;99.90;;;4.24;100.00;96233.16;4997537;28;20452;-81
2020/12/07 03:01:23;;;;;;;9.10;5.40;;;3.50;99.90;;;4.27;100.00;96235.34;4998023;28;20550;-81
2020/12/07 03:03:51;;;;;;;8.90;4.90;;;3.70;99.90;;;4.28;100.00;96231.00;4998021;28;20454;-80
2020/12/07 03:06:18;;;;;;;6.93;4.93;;;3.60;99.90;;;4.25;100.00;96228.78;4995262;28;20491;-81
2020/12/07 03:08:46;;;;;;;9.37;4.87;;;3.60;99.90;;;4.21;100.00;96228.38;4996883;28;20464;-81
2020/12/07 03:11:13;;;;;;;6.23;4.23;;;3.40;99.90;;;4.16;100.00;96225.59;4998064;28;20952;-81
2020/12/07 03:13:41;;;;;;;5.20;3.57;;;3.40;99.90;;;4.20;100.00;96223.41;4996809;28;20475;-80
2020/12/07 03:16:09;;;;;;;12.60;5.00;;;3.40;99.90;;;4.17;100.00;96214.22;4998069;28;20616;-81
2020/12/07 03:18:36;;;;;;;7.80;4.27;;;3.40;99.90;;;4.14;100.00;96226.75;4997930;28;20979;-80
2020/12/07 03:21:04;;;;;;;11.70;5.10;;;3.40;99.90;;;4.10;100.00;96221.16;4997684;28;20479;-81
2020/12/07 03:23:31;;;;;;;6.23;3.97;;;3.30;99.90;;;4.11;100.00;96230.53;4997982;28;20529;-81
2020/12/07 03:26:00;;;;;;;6.30;4.37;;;3.40;99.90;;;4.12;100.00;96229.53;4997393;28;20777;-81
2020/12/07 03:28:27;;;;;;;6.83;4.47;;;3.40;99.90;;;4.12;100.00;96224.38;4998146;28;20508;-81
2020/12/07 03:30:56;;;;;;;12.53;4.50;;;3.50;99.90;;;4.14;100.00;96218.97;4997127;28;20467;-81
2020/12/07 03:33:23;;;;;;;5.57;3.90;;;3.40;99.90;;;4.15;100.00;96218.81;4997090;28;20471;-81
2020/12/07 03:35:51;;;;;;;6.63;4.20;;;3.40;99.90;;;4.20;100.00;96221.59;4993986;28;20807;-80
2020/12/07 03:38:18;;;;;;;6.30;3.87;;;3.50;99.90;;;4.19;100.00;96238.13;4996686;28;20463;-81
2020/12/07 03:40:46;;;;;;;8.20;4.50;;;3.40;99.90;;;4.18;100.00;96240.88;4997635;28;20466;-80
2020/12/07 03:43:13;;;;;;;9.07;5.80;;;3.50;99.90;;;4.20;100.00;96246.69;4997577;28;20482;-80
2020/12/07 03:45:43;;;;;;;6.63;3.90;;;3.50;99.90;;;4.22;100.00;96253.25;4996400;28;20498;-81
2020/12/07 03:48:12;;;;;;;8.43;3.60;;;3.60;99.90;;;4.23;100.00;96249.69;4998509;28;20522;-81
2020/12/07 03:50:39;;;;;;;5.40;4.13;;;3.60;99.90;;;4.25;100.00;96250.28;4999627;28;20609;-81
2020/12/07 03:53:07;;;;;;;7.57;4.30;;;3.60;99.90;;;4.26;100.00;96256.25;5000462;28;20533;-81
2020/12/07 03:55:34;;;;;;;5.63;4.43;;;3.70;99.90;;;4.22;100.00;96266.19;5000033;28;20467;-80
2020/12/07 03:58:02;;;;;;;6.93;3.70;;;3.60;99.90;;;4.23;100.00;96272.97;5000841;28;20479;-81
2020/12/07 04:00:29;;;;;;;4.03;3.40;;;3.60;99.90;;;4.22;100.00;96273.94;4996745;28;20456;-81
2020/12/07 04:02:57;;;;;;;5.80;3.70;;;3.50;99.90;;;4.25;100.00;96270.19;4999962;28;20538;-81
2020/12/07 04:05:29;;;;;;;6.27;3.80;;;3.60;99.90;;;4.25;100.00;96270.19;4998794;28;20469;-81
2020/12/07 04:07:57;;;;;;;8.37;4.23;;;3.50;99.90;;;4.25;100.00;96268.41;4998946;28;20534;-80
2020/12/07 04:10:24;;;;;;;5.63;4.10;;;3.60;99.90;;;4.24;100.00;96276.34;4997532;28;20498;-81
2020/12/07 04:12:52;;;;;;;5.00;3.63;;;3.60;99.90;;;4.25;100.00;96270.97;5000330;28;20468;-80
2020/12/07 04:15:19;;;;;;;4.23;3.10;;;3.60;99.90;;;4.28;100.00;96265.41;4999842;28;21030;-81
2020/12/07 04:17:47;;;;;;;6.73;4.30;;;3.60;99.90;;;4.26;100.00;96270.00;4997463;28;20463;-80
2020/12/07 04:20:14;;;;;;;4.97;3.30;;;3.70;99.90;;;4.25;100.00;96259.84;4999507;28;20502;-80
2020/12/07 04:22:43;;;;;;;4.90;3.77;;;3.60;99.90;;;4.27;100.00;96256.06;5001065;28;21327;-80
2020/12/07 04:25:10;;;;;;;5.90;3.43;;;3.70;99.90;;;4.26;100.00;96253.69;4999724;28;21234;-80
2020/12/07 04:27:37;;;;;;;5.00;3.57;;;3.60;99.90;;;4.27;100.00;96263.81;4997507;28;20514;-81
2020/12/07 04:30:05;;;;;;;7.80;3.67;;;3.70;99.90;;;4.28;100.00;96262.03;4999635;28;20903;-81
2020/12/07 04:32:33;;;;;;;6.20;3.70;;;3.70;99.90;;;4.26;100.00;96262.25;5001054;28;20958;-80
2020/12/07 04:35:00;;;;;;;6.00;3.53;;;3.70;99.90;;;4.27;100.00;96263.81;4999024;28;20475;-80
2020/12/07 04:37:28;;;;;;;5.17;3.30;;;3.70;99.90;;;4.25;100.00;96270.97;4999937;28;20462;-81
2020/12/07 04:39:57;;;;;;;4.57;3.47;;;3.70;99.90;;;4.23;100.00;96262.63;5000409;28;20447;-81
2020/12/07 04:42:26;;;;;;;4.50;3.30;;;3.60;99.90;;;4.23;100.00;96267.00;4994665;28;20641;-80
2020/12/07 04:44:54;;;;;;;5.10;3.67;;;3.60;99.90;;;4.25;100.00;96265.00;4999185;28;20534;-81
2020/12/07 04:47:24;;;;;;;6.80;3.83;;;3.60;99.90;;;4.27;100.00;96265.63;5001482;28;20545;-81
2020/12/07 04:49:54;;;;;;;5.20;3.50;;;3.70;99.90;;;4.23;100.00;96270.38;4999190;28;20451;-80
2020/12/07 04:52:22;;;;;;;5.63;4.20;;;3.60;99.90;;;4.21;100.00;96264.59;4997781;28;20521;-80
2020/12/07 04:54:53;;;;;;;5.43;3.70;;;3.60;99.90;;;4.21;100.00;96268.97;5000507;28;20548;-81
2020/12/07 04:57:22;;;;;;;5.40;3.90;;;3.50;99.90;;;4.18;100.00;96277.91;5000504;28;20447;-80
2020/12/07 04:59:50;;;;;;;5.20;3.67;;;3.50;99.90;;;4.18;100.00;96275.31;4999662;28;20873;-81
2020/12/07 05:02:18;;;;;;;6.27;4.33;;;3.50;99.90;;;4.20;100.00;96282.91;4999295;28;20466;-80
2020/12/07 05:04:45;;;;;;;6.43;4.23;;;3.50;99.90;;;4.20;100.00;96285.50;4999793;28;20456;-81
2020/12/07 05:07:13;;;;;;;8.67;4.20;;;3.60;99.90;;;4.15;100.00;96298.97;4995679;28;20880;-80
2020/12/07 05:09:41;;;;;;;6.57;4.00;;;3.50;99.90;;;4.18;100.00;96296.00;4998382;28;20464;-81
2020/12/07 05:12:14;;;;;;;7.87;4.37;;;3.60;99.90;;;4.16;100.00;96305.75;4998193;28;20475;-80
2020/12/07 05:14:43;;;;;;;6.53;4.00;;;3.60;99.90;;;4.21;100.00;96307.75;5000542;28;20463;-81
2020/12/07 05:17:11;;;;;;;6.10;4.23;;;3.60;99.90;;;4.17;100.00;96312.50;4997753;28;20968;-80
2020/12/07 05:19:39;;;;;;;7.63;4.83;;;3.50;99.90;;;4.16;100.00;96316.09;4999838;28;20557;-79
2020/12/07 05:22:15;;;;;;;6.73;5.00;;;3.50;99.90;;;4.18;100.00;96311.53;4998601;28;20526;-80
2020/12/07 05:24:47;;;;;;;6.30;4.20;;;3.50;99.90;;;4.19;100.00;96312.34;4998760;28;20524;-80
2020/12/07 05:27:18;;;;;;;6.77;4.43;;;3.50;99.90;;;4.18;100.00;96316.69;4998522;28;20495;-81
2020/12/07 05:30:01;;;;;;;6.53;4.20;;;3.50;99.90;;;4.16;100.00;96313.53;4999379;28;21208;-80
2020/12/07 05:32:33;;;;;;;7.00;4.50;;;3.50;99.90;;;4.16;100.00;96310.94;5000036;28;20801;-80
2020/12/07 05:35:01;;;;;;;5.37;4.37;;;3.50;99.90;;;4.17;100.00;96325.44;4999413;28;20468;-80
2020/12/07 05:37:32;;;;;;;5.07;4.00;;;3.50;99.90;;;4.17;100.00;96319.47;5000716;28;20468;-80
2020/12/07 05:40:03;;;;;;;7.07;5.00;;;3.50;99.90;;;4.16;100.00;96323.06;4999165;28;20980;-81
2020/12/07 05:42:32;;;;;;;6.10;4.37;;;3.40;99.90;;;4.17;100.00;96319.47;4997586;28;20521;-80
2020/12/07 05:45:02;;;;;;;6.07;4.27;;;3.40;99.90;;;4.16;100.00;96323.88;5000107;28;20471;-80
2020/12/07 05:47:33;;;;;;;6.70;4.63;;;3.50;99.90;;;4.16;100.00;96323.88;5000027;28;20495;-80
2020/12/07 05:50:02;;;;;;;5.07;3.67;;;3.50;99.90;;;4.17;100.00;96330.63;4997430;28;22420;-79
2020/12/07 05:52:41;;;;;;;9.13;5.77;;;3.40;99.90;;;4.17;100.00;96322.84;4998925;28;20466;-80
2020/12/07 05:55:11;;;;;;;7.07;4.70;;;3.50;99.90;;;4.15;100.00;96327.44;5000241;28;20458;-79
2020/12/07 05:57:52;;;;;;;5.57;3.73;;;3.50;99.90;;;4.15;100.00;96330.00;5000198;28;20962;-80
2020/12/07 06:00:23;;;;;;;11.27;4.70;;;3.50;99.90;;;4.18;100.00;96328.84;4999219;28;20532;-80
2020/12/07 06:02:52;;;;;;;9.80;4.93;;;3.50;99.90;;;4.16;100.00;96321.28;4999640;28;20846;-80
2020/12/07 06:05:21;;;;;;;6.20;4.37;;;3.50;99.90;;;4.19;100.00;96326.06;5001027;28;20452;-81
2020/12/07 06:07:56;;;;;;;7.40;4.67;;;3.50;99.90;;;4.16;100.00;96328.22;5000661;28;20530;-81
2020/12/07 06:10:32;;;;;;;5.67;3.80;;;3.50;99.90;;;4.14;100.00;96328.41;5000328;28;20852;-81
2020/12/07 06:13:05;;;;;;;8.30;5.00;;;3.40;99.90;;;4.14;100.00;96338.75;4999528;28;20454;-81
2020/12/07 06:15:33;;;;;;;7.23;4.83;;;3.40;99.90;;;4.18;100.00;96336.59;5000436;28;20451;-81
2020/12/07 06:18:01;;;;;;;7.23;5.20;;;3.60;99.90;;;4.15;100.00;96342.94;5000333;28;21101;-81
2020/12/07 06:20:37;;;;;;;7.00;4.80;;;3.50;99.90;;;4.18;100.00;96352.09;4999920;28;20874;-80
2020/12/07 06:23:04;;;;;;;7.40;4.57;;;3.60;99.90;;;4.09;100.00;96356.63;5000863;28;20906;-80
2020/12/07 06:25:34;;;;;;;5.87;4.37;;;3.50;99.90;;;4.10;100.00;96357.41;5000839;28;20455;-80
2020/12/07 06:28:08;;;;;;;8.93;5.13;;;3.50;99.90;;;4.16;100.00;96364.44;4999743;28;20510;-81
2020/12/07 06:30:38;;;;;;;5.90;4.50;;;3.50;99.90;;;4.13;100.00;96365.59;5000699;28;20483;-80
2020/12/07 06:33:09;;;;;;;6.53;4.10;;;3.40;99.90;;;4.15;100.00;96362.84;5000960;28;20553;-80
2020/12/07 06:35:46;;;;;;;7.87;5.10;;;3.50;99.90;;;4.11;100.00;96367.59;5001016;28;20933;-81
2020/12/07 06:38:14;;;;;;;8.97;6.10;;;3.50;99.90;;;4.07;100.00;96371.53;5001279;28;20461;-80
2020/12/07 06:40:42;;;;;;;6.13;4.57;;;3.40;99.90;;;4.12;100.00;96373.56;5001138;28;20890;-80
2020/12/07 06:43:20;;;;;;;8.40;5.50;;;3.50;99.90;;;4.15;100.00;96375.75;5000736;28;20452;-80
2020/12/07 06:45:49;;;;;;;8.33;4.97;;;3.50;99.90;;;4.16;100.00;96373.00;5000904;28;20447;-80
2020/12/07 06:48:20;;;;;;;7.73;4.27;;;3.60;99.90;;;4.17;100.00;96382.34;5000448;28;20505;-81
2020/12/07 06:50:48;;;;;;;8.73;4.63;;;3.60;99.90;;;4.19;100.00;96385.56;5000797;28;20499;-80
2020/12/07 06:53:42;;;;;;;5.77;4.37;;;3.60;99.90;;;4.16;100.00;96388.53;5000732;28;20456;-81
2020/12/07 06:56:09;;;;;;;6.00;4.63;;;3.60;99.90;;;4.18;100.00;96391.72;5000393;28;20482;-81
2020/12/07 06:58:40;;;;;;;6.80;4.40;;;3.60;99.90;;;4.15;100.00;96402.44;5000973;28;20973;-81
2020/12/07 07:01:11;;;;;;;8.13;3.83;;;3.50;99.90;;;4.14;100.00;96393.06;5000426;28;21149;-81
2020/12/07 07:03:48;;;;;;;10.03;4.90;;;3.50;99.90;;;4.18;100.00;96401.25;5001678;28;20700;-80
2020/12/07 07:06:20;;;;;;;8.40;5.50;;;3.60;99.90;;;4.15;100.00;96405.03;5000437;28;20951;-81
2020/12/07 07:08:48;;;;;;;10.23;5.63;;;3.50;99.90;;;4.18;100.00;96406.41;5000756;28;21022;-81
2020/12/07 07:11:16;;;;;;;5.80;4.50;;;3.60;99.90;;;4.16;100.00;96406.63;5000628;28;20922;-81
2020/12/07 07:13:48;;;;;;;8.27;5.30;;;3.50;99.90;;;4.14;100.00;96412.94;5000486;28;20475;-81
2020/12/07 07:16:19;;;;;;;8.20;5.53;;;3.50;99.90;;;4.17;100.00;96422.91;5001042;28;20455;-80
2020/12/07 07:18:46;;;;;;;7.43;4.63;;;3.60;99.90;;;4.18;100.00;96421.94;5000738;28;20454;-81
2020/12/07 07:21:14;;;;;;;8.57;5.00;;;3.60;99.90;;;4.20;100.00;96423.34;5000732;28;20941;-80
2020/12/07 07:23:42;;;;;;;8.87;4.97;;;3.60;99.90;;;4.19;100.00;96420.97;5001491;28;20447;-80
2020/12/07 07:26:19;;;;;;;13.43;4.90;;;3.60;99.90;;;4.13;100.00;96422.50;5004084;28;20451;-80
2020/12/07 07:28:47;;;;;;;8.13;4.57;;;3.60;99.90;;;4.16;100.00;96429.09;5004271;28;20831;-80
2020/12/07 07:31:15;;;;;;;8.53;4.80;;;3.60;99.90;;;4.18;100.00;96427.91;5004001;28;20499;-81
2020/12/07 07:33:43;;;;;;;8.00;4.80;;;3.70;99.90;;;4.16;100.00;96432.50;5004203;28;20451;-80
2020/12/07 07:36:22;;;;;;;6.03;3.73;;;3.70;99.90;;;4.16;100.00;96427.31;5003607;28;20450;-81
2020/12/07 07:38:53;;;;;;;8.53;4.97;;;3.60;99.90;;;4.19;100.00;96426.13;5004028;28;20459;-80
2020/12/07 07:41:24;;;;;;;9.13;5.40;;;3.60;99.90;;;4.19;100.00;96432.13;5003542;28;20455;-80
2020/12/07 07:43:53;;;;;;;6.70;4.60;;;3.60;99.90;;;4.20;100.00;96433.69;5003810;28;20456;-80
2020/12/07 07:46:20;;;;;;;7.87;4.83;;;3.50;99.90;;;4.20;100.00;96438.88;5004126;28;20513;-81
2020/12/07 07:49:05;;;;;;;5.80;4.40;;;3.50;99.90;;;4.20;100.00;96444.03;5004030;28;20522;-81
2020/12/07 08:17:15;;;;;;;8.57;5.50;;;3.70;99.90;;;4.31;100.00;96459.06;5002743;28;20462;-80
2020/12/07 08:19:43;;;;;;;10.73;6.80;;;3.70;99.90;;;4.31;100.00;96461.66;5003476;28;20522;-81
2020/12/07 08:22:17;;;;;;;9.30;6.00;;;3.70;99.90;;;4.29;100.00;96457.66;5002945;28;20459;-80
2020/12/07 08:24:53;;;;;;;11.10;6.63;;;3.70;99.90;;;4.31;100.00;96461.66;5003151;28;20442;-80
2020/12/07 08:27:21;;;;;;;9.43;6.33;;;3.60;99.90;;;4.36;100.00;96463.69;5002984;28;20526;-80
2020/12/07 08:29:48;;;;;;;11.70;7.00;;;3.60;99.90;;;4.37;100.00;96470.47;5002980;28;20479;-80
2020/12/07 08:32:23;;;;;;;14.70;7.37;;;3.70;99.90;;;4.42;100.00;96474.09;5003461;28;20442;-81
2020/12/07 08:34:51;;;;;;;11.97;7.10;;;3.70;99.90;;;4.50;100.00;96479.13;5002549;28;20455;-81
2020/12/07 08:37:19;;;;;;;12.50;7.50;;;3.90;99.90;;;4.47;100.00;96492.44;5002583;28;20869;-80
2020/12/07 08:39:47;;;;;;;11.40;6.47;;;3.90;99.90;;;4.52;100.00;96492.66;5003285;28;20506;-80
2020/12/07 08:42:14;;;;;;;12.50;6.33;;;3.90;99.90;;;4.54;100.00;96500.25;5002765;28;20443;-80
2020/12/07 08:44:42;;;;;;;13.73;7.00;;;3.90;99.90;;;4.48;100.00;96504.38;5002827;28;20447;-81
2020/12/07 08:47:10;;;;;;;12.47;7.20;;;3.80;99.90;;;4.54;100.00;96498.47;5003114;28;20959;-80
2020/12/07 08:49:38;;;;;;;12.50;7.20;;;3.90;99.90;;;4.51;100.00;96492.88;5003044;28;20494;-81
2020/12/07 08:52:05;;;;;;;14.10;7.50;;;3.90;99.90;;;4.51;100.00;96496.25;5002836;28;20443;-81
2020/12/07 08:54:34;;;;;;;10.67;6.60;;;3.90;99.90;;;4.50;100.00;96493.84;5002235;28;20447;-80
2020/12/07 08:57:01;;;;;;;11.60;6.97;;;3.90;99.90;;;4.51;100.00;96493.66;5002742;28;20470;-81
2020/12/07 08:59:29;;;;;;;9.53;6.60;;;3.90;99.90;;;4.53;100.00;96502.03;5002652;28;20490;-80
2020/12/07 09:01:56;;;;;;;10.23;6.50;;;4.00;99.90;;;4.44;100.00;96497.19;5002586;28;21031;-81
2020/12/07 09:04:24;;;;;;;12.30;6.60;;;3.80;99.90;;;4.43;100.00;96496.38;5002305;28;20818;-80
2020/12/07 09:06:56;;;;;;;7.87;5.90;;;3.80;99.90;;;4.47;100.00;96504.59;5002364;28;20448;-81
2020/12/07 09:09:24;;;;;;;11.17;6.00;;;3.80;99.90;;;4.45;100.00;96504.75;5002707;28;20498;-80
2020/12/07 09:11:52;;;;;;;9.50;5.70;;;3.80;99.90;;;4.45;100.00;96507.34;5001790;28;20451;-80
2020/12/07 09:14:19;;;;;;;9.77;5.40;;;3.90;99.90;;;4.52;100.00;96509.97;5001997;28;20822;-80
2020/12/07 09:16:47;;;;;;;9.60;5.60;;;4.00;99.90;;;4.55;100.00;96507.81;5002087;28;20455;-81
2020/12/07 09:19:14;;;;;;;10.60;5.80;;;4.00;99.90;;;4.45;100.00;96515.09;5001810;28;20958;-81
2020/12/07 09:21:42;;;;;;;11.00;6.10;;;3.80;99.90;;;4.43;100.00;96508.53;5002257;28;20447;-81
2020/12/07 09:24:09;;;;;;;9.33;5.50;;;3.80;99.90;;;4.43;100.00;96509.34;5001735;28;20514;-80
2020/12/07 09:26:37;;;;;;;12.30;6.50;;;3.80;99.90;;;4.42;100.00;96514.69;5002258;28;20523;-80
2020/12/07 09:29:05;;;;;;;8.60;4.70;;;3.80;99.90;;;4.44;100.00;96518.66;5001432;28;20526;-82
2020/12/07 09:31:33;;;;;;;10.20;5.30;;;3.80;99.90;;;4.45;100.00;96520.28;5001917;28;20450;-80
2020/12/07 09:34:00;;;;;;;7.63;5.00;;;3.80;99.90;;;4.47;100.00;96518.31;5002026;28;20452;-80
2020/12/07 09:36:28;;;;;;;10.40;6.07;;;3.80;99.90;;;4.48;100.00;96524.28;5001523;28;20447;-81
2020/12/07 09:38:56;;;;;;;10.10;5.30;;;3.80;99.90;;;4.55;100.00;96520.75;5001964;28;20466;-80
2020/12/07 09:41:23;;;;;;;8.50;5.73;;;3.90;99.90;;;4.58;100.00;96524.78;5001724;28;20514;-80
2020/12/07 09:43:52;;;;;;;11.20;5.97;;;3.90;99.90;;;4.63;100.00;96524.19;5001727;28;20452;-80
2020/12/07 09:46:20;;;;;;;9.50;4.93;;;4.00;99.90;;;4.61;100.00;96526.19;5001853;28;20451;-80
2020/12/07 09:48:47;;;;;;;9.07;5.00;;;4.00;99.90;;;4.64;100.00;96528.41;5001590;28;20507;-80
2020/12/07 09:51:15;;;;;;;8.00;5.33;;;4.00;99.90;;;4.60;100.00;96532.34;5001691;28;20509;-80
2020/12/07 09:53:42;;;;;;;7.93;5.03;;;3.90;99.90;;;4.61;100.00;96531.38;5001741;28;20790;-80
2020/12/07 09:56:10;;;;;;;7.07;4.70;;;3.90;99.90;;;4.56;100.00;96526.75;5001381;28;20924;-80
2020/12/07 09:58:38;;;;;;;7.40;4.90;;;3.90;99.90;;;4.58;100.00;96522.97;5001933;28;20459;-80
2020/12/07 10:01:06;;;;;;;9.20;4.37;;;3.90;99.90;;;4.62;100.00;96525.22;5001079;28;20858;-80
2020/12/07 10:03:34;;;;;;;7.53;4.70;;;4.00;99.90;;;4.66;100.00;96524.63;5001441;28;20466;-80
2020/12/07 10:06:02;;;;;;;6.43;4.70;;;4.10;99.90;;;4.70;100.00;96523.28;5001385;28;20459;-81
2020/12/07 10:08:29;;;;;;;6.00;3.93;;;4.20;99.90;;;4.73;100.00;96522.88;5001251;28;20586;-80
2020/12/07 10:10:58;;;;;;;7.97;5.33;;;4.10;99.90;;;4.71;100.00;96526.66;5001747;28;21232;-80
2020/12/07 10:13:27;;;;;;;6.30;4.07;;;4.10;99.90;;;4.79;100.00;96526.53;5001680;28;20943;-82
2020/12/07 10:15:55;;;;;;;7.80;4.80;;;4.30;99.90;;;4.78;100.00;96525.72;5001131;28;20451;-82
2020/12/07 10:18:22;;;;;;;4.83;3.87;;;4.20;99.90;;;4.83;100.00;96527.75;5001365;28;20457;-81
2020/12/07 10:20:51;;;;;;;5.10;3.83;;;4.30;99.90;;;4.87;100.00;96526.38;5001055;28;20443;-80
2020/12/07 10:23:18;;;;;;;5.50;3.60;;;4.30;99.90;;;4.93;100.00;96526.41;5000950;28;20454;-81
2020/12/07 10:25:49;;;;;;;7.37;4.00;;;4.50;99.90;;;4.96;100.00;96533.81;5000943;28;20502;-80
2020/12/07 10:28:27;;;;;;;8.23;3.73;;;4.50;99.90;;;4.90;100.00;96531.16;5000721;28;20944;-80
2020/12/07 10:30:55;;;;;;;6.90;4.03;;;4.40;99.90;;;4.90;100.00;96528.59;5000735;28;20443;-80
2020/12/07 10:33:23;;;;;;;5.43;3.50;;;4.40;99.90;;;4.86;100.00;96532.56;5000363;28;20459;-80
2020/12/07 10:35:52;;;;;;;5.37;3.83;;;4.30;99.90;;;4.91;100.00;96532.78;5000953;28;20544;-80
2020/12/07 10:38:20;;;;;;;6.70;3.60;;;4.30;99.90;;;4.86;100.00;96532.56;5000148;28;20945;-80
2020/12/07 10:40:48;;;;;;;7.60;4.30;;;4.20;99.90;;;4.84;100.00;96524.97;5000854;28;20513;-80
2020/12/07 10:43:15;;;;;;;5.97;3.60;;;4.20;99.90;;;4.82;100.00;96526.16;5000235;28;20443;-80
2020/12/07 10:45:43;;;;;;;6.37;3.30;;;4.20;99.90;;;4.84;100.00;96535.31;5000874;28;21002;-80
2020/12/07 10:48:10;;;;;;;5.00;3.97;;;4.20;99.90;;;4.86;100.00;96538.50;5000959;28;20739;-81
2020/12/07 10:50:38;;;;;;;4.50;3.20;;;4.20;99.90;;;4.88;100.00;96538.34;5001096;28;21014;-80
2020/12/07 10:53:06;;;;;;;5.70;3.20;;;4.40;99.90;;;4.87;100.00;96531.56;5000359;28;20443;-80
2020/12/07 10:55:34;;;;;;;7.03;3.80;;;4.30;99.90;;;4.88;100.00;96535.75;5000612;28;20802;-80
2020/12/07 10:58:01;;;;;;;6.80;3.77;;;4.30;99.90;;;4.92;100.00;96529.22;5000370;28;20866;-81